createdAt,value
2023-01-08T00:04:17.997Z,113.73
2023-01-08T00:09:21.040Z,101.33
2023-01-08T00:14:23.467Z,76.83
2023-01-08T00:19:25.885Z,68.83
2023-01-08T00:24:28.300Z,67.93
2023-01-08T00:29:31.188Z,72.20
2023-01-08T00:34:33.563Z,66.80
2023-01-08T00:39:36.061Z,64.53
2023-01-08T00:44:38.562Z,64.27
2023-01-08T00:49:41.047Z,79.40
2023-01-08T00:54:43.487Z,71.27
2023-01-08T00:59:46.096Z,68.80
2023-01-08T01:04:48.656Z,72.00
2023-01-08T01:09:51.103Z,75.70
2023-01-08T01:14:53.513Z,76.50
2023-01-08T01:19:55.916Z,76.70
2023-01-08T01:24:58.618Z,76.93
2023-01-08T01:30:01.072Z,91.90
2023-01-08T01:35:04.089Z,97.23
2023-01-08T01:40:07.032Z,98.83
2023-01-08T01:45:21.570Z,91.53
2023-01-08T01:50:33.252Z,84.87
2023-01-08T01:55:38.364Z,83.80
2023-01-08T02:00:41.558Z,89.73
2023-01-08T02:05:56.250Z,94.17
2023-01-08T02:11:14.791Z,85.17
2023-01-08T02:16:26.539Z,81.07
2023-01-08T02:21:47.982Z,72.33
2023-01-08T02:26:54.111Z,83.03
2023-01-08T02:31:56.926Z,73.80
2023-01-08T02:37:00.391Z,83.93
2023-01-08T02:42:11.957Z,108.10
2023-01-08T02:47:22.844Z,91.13
2023-01-08T02:52:28.991Z,106.07
2023-01-08T02:57:33.659Z,106.27
2023-01-08T03:02:39.742Z,80.53
2023-01-08T03:07:42.388Z,71.57
2023-01-08T03:13:11.268Z,74.23
2023-01-08T03:18:18.866Z,67.60
2023-01-08T03:23:22.899Z,60.70
2023-01-08T03:28:30.699Z,73.93
2023-01-08T03:33:34.305Z,69.50
2023-01-08T03:38:48.623Z,78.13
2023-01-08T03:43:51.101Z,75.07
2023-01-08T03:48:55.360Z,82.90
2023-01-08T03:53:59.905Z,83.40
2023-01-08T03:59:02.243Z,92.23
2023-01-08T04:04:04.933Z,77.30
2023-01-08T04:09:07.496Z,83.47
2023-01-08T04:14:12.837Z,91.97
2023-01-08T04:19:15.457Z,92.27
2023-01-08T04:24:19.740Z,92.77
2023-01-08T04:29:22.249Z,96.37
2023-01-08T04:34:24.696Z,92.47
2023-01-08T04:39:27.252Z,93.30
2023-01-08T04:44:29.698Z,110.17
2023-01-08T04:49:32.109Z,99.90
2023-01-08T04:54:34.673Z,101.77
2023-01-08T04:59:37.175Z,105.70
2023-01-08T05:04:39.628Z,97.47
2023-01-08T05:09:42.131Z,103.33
2023-01-08T05:14:45.178Z,91.57
2023-01-08T05:19:47.569Z,95.23
2023-01-08T05:24:49.892Z,84.47
2023-01-08T05:29:52.305Z,99.17
2023-01-08T05:34:54.730Z,85.83
2023-01-08T05:39:57.142Z,82.20
2023-01-08T05:44:59.541Z,89.30
2023-01-08T05:50:01.949Z,70.07
2023-01-08T05:55:04.685Z,77.50
2023-01-08T06:00:09.541Z,80.83
2023-01-08T06:05:15.512Z,93.93
2023-01-08T06:10:18.018Z,88.50
2023-01-08T06:15:21.090Z,88.10
2023-01-08T06:20:23.484Z,92.37
2023-01-08T06:25:25.974Z,82.67
2023-01-08T06:30:28.364Z,84.70
2023-01-08T06:35:30.776Z,90.53
2023-01-08T06:40:33.184Z,88.73
2023-01-08T06:45:35.569Z,78.53
2023-01-08T06:50:38.041Z,75.33
2023-01-08T06:55:40.436Z,75.90
2023-01-08T07:00:43.667Z,76.17
2023-01-08T07:05:46.360Z,95.37
2023-01-08T07:10:49.054Z,93.27
2023-01-08T07:15:51.985Z,81.43
2023-01-08T07:20:54.463Z,90.07
2023-01-08T07:26:03.578Z,92.10
2023-01-08T07:31:06.590Z,81.47
2023-01-08T07:36:09.351Z,92.20
2023-01-08T07:41:13.293Z,99.20
2023-01-08T07:46:16.458Z,86.43
2023-01-08T07:51:18.888Z,86.23
2023-01-08T07:56:21.287Z,75.77
2023-01-08T08:01:24.278Z,74.83
2023-01-08T08:06:26.886Z,87.27
2023-01-08T08:11:29.327Z,91.43
2023-01-08T08:16:32.364Z,88.90
2023-01-08T08:21:34.901Z,88.90
2023-01-08T08:26:37.342Z,107.10
2023-01-08T08:31:39.897Z,159.13
2023-01-08T08:36:42.371Z,142.67
2023-01-08T08:41:44.796Z,172.67
2023-01-08T08:46:47.209Z,127.30
2023-01-08T08:51:49.666Z,158.40
2023-01-08T08:56:52.077Z,143.07
2023-01-08T09:01:57.355Z,121.83
2023-01-08T09:07:00.233Z,82.17
2023-01-08T09:12:02.815Z,156.13
2023-01-08T09:17:05.533Z,188.27
2023-01-08T09:22:10.542Z,93.50
2023-01-08T09:27:13.532Z,87.30
2023-01-08T09:32:18.540Z,86.73
2023-01-08T09:37:23.264Z,78.60
2023-01-08T09:42:28.510Z,78.50
2023-01-08T09:47:41.129Z,66.03
2023-01-08T09:52:43.857Z,73.20
2023-01-08T09:57:46.939Z,69.67
2023-01-08T10:02:49.497Z,69.90
2023-01-08T10:07:51.971Z,82.53
2023-01-08T10:12:55.624Z,89.30
2023-01-08T10:18:07.720Z,92.43
2023-01-08T10:23:16.207Z,70.80
2023-01-08T10:28:24.436Z,60.70
2023-01-08T10:33:38.078Z,59.97
2023-01-08T10:38:48.409Z,65.87
2023-01-08T10:44:12.288Z,106.73
2023-01-08T10:49:24.028Z,61.03
2023-01-08T10:54:41.098Z,51.07
2023-01-08T10:59:45.810Z,50.00
2023-01-08T11:04:52.296Z,49.53
2023-01-08T11:09:55.452Z,45.77
2023-01-08T11:14:58.004Z,44.20
2023-01-08T11:20:20.574Z,51.40
2023-01-08T11:25:28.272Z,44.57
2023-01-08T11:30:32.631Z,46.50
2023-01-08T11:35:49.235Z,44.73
2023-01-08T11:41:26.939Z,54.03
2023-01-08T11:46:36.547Z,44.27
2023-01-08T11:52:03.981Z,42.30
2023-01-08T11:57:18.251Z,42.67
2023-01-08T12:02:35.776Z,47.17
2023-01-08T12:08:02.140Z,48.93
2023-01-08T12:13:41.921Z,85.80
2023-01-08T12:19:26.264Z,163.80
2023-01-08T12:25:05.146Z,74.47
2023-01-08T12:30:22.806Z,62.43
2023-01-08T12:35:36.306Z,77.70
2023-01-08T12:40:53.513Z,116.03
2023-01-08T12:45:59.745Z,114.17
2023-01-08T12:51:07.795Z,117.03
2023-01-08T12:56:44.965Z,143.90
2023-01-08T13:01:53.742Z,211.30
2023-01-08T13:07:04.747Z,126.87
2023-01-08T13:12:07.429Z,101.10
2023-01-08T13:17:20.197Z,131.40
2023-01-08T13:22:37.025Z,105.90
2023-01-08T13:27:40.154Z,212.60
2023-01-08T13:32:45.829Z,269.03
2023-01-08T13:38:08.418Z,160.13
2023-01-08T13:43:18.579Z,91.67
2023-01-08T13:48:48.841Z,72.80
2023-01-08T13:53:51.668Z,95.30
2023-01-08T13:58:54.913Z,117.67
2023-01-08T14:03:57.990Z,95.17
2023-01-08T14:09:03.757Z,235.33
2023-01-08T14:14:12.574Z,66.60
2023-01-08T14:19:17.912Z,106.40
2023-01-08T14:24:23.108Z,234.53
2023-01-08T14:29:30.367Z,263.30
2023-01-08T14:34:36.447Z,386.23
2023-01-08T14:39:39.096Z,157.63
2023-01-08T14:44:44.398Z,228.60
2023-01-08T14:49:53.783Z,82.80
2023-01-08T14:55:00.077Z,108.93
2023-01-08T15:00:03.026Z,153.30
2023-01-08T15:05:30.018Z,156.27
2023-01-08T15:10:33.974Z,156.77
2023-01-08T15:15:50.617Z,139.60
2023-01-08T15:20:54.037Z,159.97
2023-01-08T15:25:56.887Z,125.23
2023-01-08T15:30:59.662Z,178.63
2023-01-08T15:36:02.060Z,183.73
2023-01-08T15:41:04.589Z,218.73
2023-01-08T15:46:11.291Z,132.53
2023-01-08T15:51:13.805Z,136.20
2023-01-08T15:56:16.391Z,173.77
2023-01-08T16:01:19.475Z,142.03
2023-01-08T16:06:21.953Z,154.97
2023-01-08T16:11:24.356Z,202.40
2023-01-08T16:16:26.762Z,224.17
2023-01-08T16:21:29.205Z,200.10
2023-01-08T16:26:31.564Z,190.63
2023-01-08T16:31:36.362Z,143.47
2023-01-08T16:36:39.987Z,130.53
2023-01-08T16:41:42.470Z,117.83
2023-01-08T16:46:45.068Z,175.53
2023-01-08T16:51:47.744Z,131.30
2023-01-08T16:56:52.068Z,115.57
2023-01-08T17:01:54.891Z,161.27
2023-01-08T17:06:58.026Z,268.23
2023-01-08T17:12:00.439Z,325.27
2023-01-08T17:17:02.868Z,137.73
2023-01-08T17:22:05.237Z,122.17
2023-01-08T17:27:07.648Z,120.30
2023-01-08T17:32:12.246Z,168.87
2023-01-08T17:37:15.177Z,165.90
2023-01-08T17:42:26.887Z,118.53
2023-01-08T17:47:31.042Z,124.00
2023-01-08T17:52:33.422Z,105.67
2023-01-08T17:57:35.860Z,121.27
2023-01-08T18:02:38.377Z,102.47
2023-01-08T18:07:40.883Z,443.20
2023-01-08T18:12:43.297Z,349.07
2023-01-08T18:17:45.749Z,160.43
2023-01-08T18:22:48.293Z,97.30
2023-01-08T18:27:50.736Z,101.60
2023-01-08T18:32:53.404Z,135.60
2023-01-08T18:37:57.019Z,173.43
2023-01-08T18:42:59.471Z,116.50
2023-01-08T18:48:02.931Z,87.67
2023-01-08T18:53:06.017Z,92.93
2023-01-08T18:58:08.458Z,146.30
2023-01-08T19:03:12.334Z,112.83
2023-01-08T19:08:14.724Z,94.07
2023-01-08T19:13:17.559Z,69.67
2023-01-08T19:18:21.364Z,73.60
2023-01-08T19:23:23.905Z,69.80
2023-01-08T19:28:26.358Z,77.57
2023-01-08T19:33:29.681Z,89.63
2023-01-08T19:38:32.092Z,145.73
2023-01-08T19:43:43.295Z,274.60
2023-01-08T19:48:45.788Z,196.53
2023-01-08T19:53:48.214Z,165.20
2023-01-08T19:58:50.715Z,209.80
2023-01-08T20:03:54.155Z,185.37
2023-01-08T20:08:59.178Z,179.33
2023-01-08T20:14:02.976Z,126.20
2023-01-08T20:19:05.529Z,147.37
2023-01-08T20:24:13.611Z,107.53
2023-01-08T20:29:17.110Z,102.43
2023-01-08T20:34:19.927Z,117.40
2023-01-08T20:39:22.919Z,131.00
2023-01-08T20:44:25.425Z,141.80
2023-01-08T20:49:28.013Z,198.10
2023-01-08T20:54:30.715Z,131.00
2023-01-08T20:59:33.142Z,150.77
2023-01-08T21:04:37.891Z,137.57
2023-01-08T21:09:40.488Z,121.43
2023-01-08T21:14:42.947Z,96.40
2023-01-08T21:19:45.494Z,98.47
2023-01-08T21:24:47.913Z,87.20
2023-01-08T21:29:51.191Z,85.00
2023-01-08T21:34:53.880Z,73.30
2023-01-08T21:39:56.234Z,79.20
2023-01-08T21:45:17.091Z,82.53
2023-01-08T21:50:19.598Z,74.53
2023-01-08T21:55:22.042Z,78.77
2023-01-08T22:00:25.168Z,78.23
2023-01-08T22:05:27.857Z,93.00
2023-01-08T22:10:30.255Z,90.50
2023-01-08T22:15:33.602Z,87.83
2023-01-08T22:20:36.015Z,97.70
2023-01-08T22:25:41.543Z,112.07
2023-01-08T22:30:43.961Z,93.97
2023-01-08T22:35:46.718Z,77.20
2023-01-08T22:40:49.076Z,79.90
2023-01-08T22:45:59.812Z,98.80
2023-01-08T22:51:03.537Z,101.20
2023-01-08T22:56:12.353Z,116.43
2023-01-08T23:01:20.824Z,174.53
2023-01-08T23:06:25.366Z,187.63
2023-01-08T23:11:28.326Z,182.50
2023-01-08T23:16:30.807Z,139.53
2023-01-08T23:21:36.447Z,127.03
2023-01-08T23:26:38.854Z,142.13
2023-01-08T23:31:43.203Z,125.43
2023-01-08T23:36:46.039Z,128.70
2023-01-08T23:41:48.467Z,128.17
2023-01-08T23:46:50.876Z,118.20
2023-01-08T23:51:54.161Z,110.43
2023-01-08T23:56:56.609Z,92.93
